Time;durP1;ratioP1;P1;durP2;ratioP2;P2;SDS_P1;SDS_P2;PMS_P1;PMS_P2;Temp;Humidity;BMP_temperature;BMP_pressure;BME280_temperature;BME280_humidity;BME280_pressure;Samples;Min_cycle;Max_cycle;Signal;HPM_P1;HPM_P2
2023/06/24 00:01:56;;;;;;;0.63;0.63;;;;;;;21.36;64.44;99751.38;5094009;28;20055;-64
2023/06/24 00:04:25;;;;;;;0.40;0.40;;;;;;;21.34;64.26;99757.53;5094106;28;20048;-64
2023/06/24 00:06:58;;;;;;;0.50;0.50;;;;;;;21.32;64.01;99749.81;5093969;28;20055;-63
2023/06/24 00:09:28;;;;;;;0.50;0.50;;;;;;;21.31;63.85;99748.13;5093969;28;20319;-64
2023/06/24 00:11:58;;;;;;;2.13;1.17;;;;;;;21.31;63.88;99742.94;5093955;28;20040;-64
2023/06/24 00:14:28;;;;;;;0.45;0.45;;;;;;;21.31;63.90;99732.53;5093919;28;20050;-64
2023/06/24 00:16:58;;;;;;;0.65;0.65;;;;;;;21.26;63.72;99729.28;5094125;28;20127;-64
2023/06/24 00:19:27;;;;;;;0.55;0.55;;;;;;;21.26;63.88;99729.28;5093945;28;20040;-64
2023/06/24 00:21:58;;;;;;;0.57;0.57;;;;;;;21.26;63.69;99726.69;5094055;28;20402;-64
2023/06/24 00:24:28;;;;;;;0.40;0.40;;;;;;;21.22;63.87;99735.53;5093877;28;20048;-64
2023/06/24 00:26:58;;;;;;;0.38;0.38;;;;;;;21.16;63.88;99748.78;5093703;28;20123;-64
2023/06/24 00:29:27;;;;;;;0.50;0.50;;;;;;;21.15;63.74;99747.09;5092450;28;20101;-64
2023/06/24 00:31:56;;;;;;;0.60;0.60;;;;;;;21.18;63.87;99757.38;5093989;28;20070;-64
2023/06/24 00:34:26;;;;;;;0.50;0.50;;;;;;;21.10;64.36;99759.44;5092465;28;20040;-64
2023/06/24 00:36:56;;;;;;;2.67;0.82;;;;;;;21.04;64.41;99770.03;5094218;28;20048;-65
2023/06/24 00:39:25;;;;;;;0.40;0.40;;;;;;;21.03;64.34;99781.34;5093329;28;20084;-64
2023/06/24 00:41:54;;;;;;;0.45;0.45;;;;;;;20.98;64.32;99785.88;5093631;28;20054;-64
2023/06/24 00:44:23;;;;;;;0.38;0.38;;;;;;;21.01;64.16;99784.91;5093887;28;20032;-64
2023/06/24 00:46:52;;;;;;;;;;;;;;;21.04;64.13;99772.63;5094071;28;20048;-64
2023/06/24 00:49:21;;;;;;;0.52;0.50;;;;;;;21.02;63.87;99777.03;5092181;28;19963;-65
2023/06/24 00:51:52;;;;;;;0.40;0.40;;;;;;;20.99;64.20;99766.81;5093754;28;20119;-65
2023/06/24 00:54:20;;;;;;;0.35;0.35;;;;;;;21.00;64.51;99767.63;5093517;28;20055;-64
2023/06/24 00:56:49;;;;;;;0.43;0.43;;;;;;;20.97;64.66;99773.78;5093405;28;20047;-64
2023/06/24 00:59:20;;;;;;;0.75;0.60;;;;;;;20.94;64.53;99773.94;5092232;28;20050;-64
2023/06/24 01:01:52;;;;;;;0.50;0.50;;;;;;;20.95;64.59;99775.59;5092257;28;20041;-64
2023/06/24 01:04:24;;;;;;;0.40;0.40;;;;;;;20.96;64.97;99782.50;5093438;28;20494;-65
2023/06/24 01:06:58;;;;;;;0.40;0.40;;;;;;;20.88;64.90;99763.78;5093721;28;20040;-64
2023/06/24 01:09:28;;;;;;;0.65;0.57;;;;;;;20.88;64.83;99768.97;5093203;28;20105;-64
2023/06/24 01:11:57;;;;;;;0.40;0.40;;;;;;;20.84;64.95;99771.78;5093572;28;20051;-64
2023/06/24 01:14:26;;;;;;;0.50;0.50;;;;;;;20.85;65.01;99763.91;5093579;28;20475;-64
2023/06/24 01:17:03;;;;;;;0.50;0.50;;;;;;;20.84;65.16;99757.06;5092124;28;20281;-64
2023/06/24 01:19:55;;;;;;;0.40;0.40;;;;;;;20.81;65.04;99757.16;5093422;28;20048;-64
2023/06/24 01:22:46;;;;;;;0.50;0.50;;;;;;;20.76;65.35;99753.91;5093525;28;20097;-64
2023/06/24 01:25:35;;;;;;;0.50;0.50;;;;;;;20.73;64.97;99744.50;5093171;28;20056;-64
2023/06/24 01:28:25;;;;;;;2.33;0.60;;;;;;;20.68;65.34;99736.06;5091966;28;20040;-64
2023/06/24 01:31:07;;;;;;;;;;;;;;;20.67;65.13;99743.91;5092741;28;20131;-64
2023/06/24 01:33:47;;;;;;;0.50;0.50;;;;;;;20.65;65.53;99746.59;5093191;28;20427;-64
2023/06/24 01:36:19;;;;;;;0.50;0.50;;;;;;;20.63;65.88;99742.38;5093543;28;20058;-64
2023/06/24 01:38:52;;;;;;;0.50;0.50;;;;;;;20.57;65.79;99740.00;5093107;28;20080;-64
2023/06/24 01:41:25;;;;;;;0.40;0.40;;;;;;;20.57;65.82;99740.00;5092256;28;20086;-64
2023/06/24 01:43:57;;;;;;;0.60;0.60;;;;;;;20.57;65.91;99737.41;5095784;28;20402;-64
2023/06/24 01:46:29;;;;;;;0.30;0.30;;;;;;;20.51;66.19;99741.13;5096738;28;20135;-64
2023/06/24 01:49:04;;;;;;;0.50;0.50;;;;;;;20.45;66.45;99741.34;5095390;28;20062;-64
2023/06/24 01:51:35;;;;;;;0.55;0.55;;;;;;;20.44;66.50;99747.41;5096203;28;20367;-64
2023/06/24 01:54:08;;;;;;;0.40;0.40;;;;;;;20.43;66.71;99742.31;5096581;28;20429;-64
2023/06/24 01:56:40;;;;;;;0.40;0.40;;;;;;;20.45;66.59;99733.56;5096590;28;20040;-64
2023/06/24 01:59:11;;;;;;;0.50;0.50;;;;;;;20.47;66.50;99733.50;5095264;28;20067;-65
2023/06/24 02:01:41;;;;;;;0.47;0.47;;;;;;;20.41;66.70;99725.97;5095485;28;20442;-64
2023/06/24 02:04:13;;;;;;;0.60;0.60;;;;;;;20.31;67.41;99724.66;5095075;28;20561;-64
2023/06/24 02:06:44;;;;;;;0.57;0.50;;;;;;;20.25;68.01;99725.72;5096341;28;20044;-64
2023/06/24 02:09:14;;;;;;;0.50;0.50;;;;;;;20.18;68.07;99713.88;5096215;28;20055;-64
2023/06/24 02:11:44;;;;;;;0.50;0.50;;;;;;;20.15;68.17;99713.16;5096043;28;20469;-65
2023/06/24 02:14:15;;;;;;;0.40;0.40;;;;;;;20.10;68.39;99710.75;5094995;28;20056;-64
2023/06/24 02:16:46;;;;;;;0.40;0.40;;;;;;;20.03;68.87;99707.53;5095181;28;20493;-64
2023/06/24 02:19:18;;;;;;;0.45;0.45;;;;;;;19.98;69.35;99709.50;5096025;28;20044;-64
2023/06/24 02:21:48;;;;;;;0.50;0.50;;;;;;;19.97;69.45;99702.59;5096558;28;20445;-64
2023/06/24 02:24:17;;;;;;;0.95;0.90;;;;;;;19.89;69.83;99717.59;5095900;28;20059;-64
2023/06/24 02:26:47;;;;;;;0.60;0.60;;;;;;;19.85;70.27;99722.94;5095869;28;20101;-65
2023/06/24 02:29:19;;;;;;;0.50;0.50;;;;;;;19.76;70.42;99716.38;5096188;28;20047;-65
2023/06/24 02:31:50;;;;;;;0.60;0.60;;;;;;;19.71;70.38;99720.88;5096399;28;20105;-64
2023/06/24 02:34:24;;;;;;;0.52;0.52;;;;;;;19.68;69.79;99710.63;5095753;28;20070;-65
2023/06/24 02:36:53;;;;;;;0.50;0.50;;;;;;;19.70;70.03;99708.81;5095760;28;20122;-64
2023/06/24 02:39:22;;;;;;;0.50;0.50;;;;;;;19.72;69.79;99696.69;5094259;28;20432;-64
2023/06/24 02:41:52;;;;;;;0.50;0.50;;;;;;;19.71;69.88;99702.75;5095560;28;20056;-65
2023/06/24 02:44:20;;;;;;;0.50;0.50;;;;;;;19.74;69.56;99709.56;5094337;28;20123;-64
2023/06/24 02:46:52;;;;;;;0.55;0.55;;;;;;;19.76;69.76;99721.56;5095467;28;20284;-64
2023/06/24 02:49:23;;;;;;;0.50;0.50;;;;;;;19.73;69.75;99716.50;5094706;28;20036;-64
2023/06/24 02:51:52;;;;;;;0.40;0.40;;;;;;;19.72;69.95;99713.97;5095691;28;20052;-64
2023/06/24 02:54:21;;;;;;;0.70;0.70;;;;;;;19.66;70.38;99717.63;5092956;28;20044;-64
2023/06/24 02:57:11;;;;;;;0.57;0.57;;;;;;;19.59;70.70;99723.94;5095762;28;20669;-64
2023/06/24 03:00:03;;;;;;;0.40;0.40;;;;;;;19.55;70.79;99724.94;5095657;28;20048;-64
2023/06/24 03:02:46;;;;;;;0.47;0.47;;;;;;;19.56;71.04;99729.22;5095178;28;20056;-64
2023/06/24 03:05:19;;;;;;;0.30;0.30;;;;;;;19.53;71.10;99744.84;5093909;28;20135;-65
2023/06/24 03:07:48;;;;;;;0.40;0.40;;;;;;;19.53;71.29;99739.66;5095520;28;20490;-65
2023/06/24 03:10:17;;;;;;;0.63;0.63;;;;;;;19.54;71.01;99741.38;5093768;28;20131;-65
2023/06/24 03:12:47;;;;;;;0.40;0.40;;;;;;;19.53;71.28;99750.03;5093796;28;20157;-64
2023/06/24 03:15:16;;;;;;;0.60;0.60;;;;;;;19.48;71.76;99751.97;5093668;28;20048;-64
2023/06/24 03:17:45;;;;;;;0.65;0.63;;;;;;;19.46;72.10;99751.16;5094908;28;20044;-65
2023/06/24 03:20:14;;;;;;;0.70;0.70;;;;;;;19.45;72.55;99757.25;5093777;28;20032;-65
2023/06/24 03:22:44;;;;;;;1.15;1.08;;;;;;;19.48;72.93;99751.97;5095618;28;20032;-65
2023/06/24 03:25:16;;;;;;;0.50;0.50;;;;;;;19.48;73.15;99751.97;5095327;28;20093;-64
2023/06/24 03:27:45;;;;;;;0.40;0.40;;;;;;;19.49;73.17;99757.97;5093753;28;20036;-64
2023/06/24 03:30:14;;;;;;;0.50;0.50;;;;;;;19.46;73.35;99764.09;5095038;28;20036;-64
2023/06/24 03:32:46;;;;;;;0.40;0.40;;;;;;;19.42;73.70;99762.53;5094577;28;20044;-64
2023/06/24 03:35:18;;;;;;;0.82;0.82;;;;;;;19.45;73.79;99767.59;5094854;28;20078;-64
2023/06/24 03:37:51;;;;;;;0.52;0.52;;;;;;;19.49;73.71;99766.59;5094709;28;20101;-65
2023/06/24 03:40:21;;;;;;;0.40;0.40;;;;;;;19.49;73.70;99769.16;5093203;28;20452;-64
2023/06/24 03:42:51;;;;;;;0.50;0.50;;;;;;;19.49;73.53;99769.16;5095018;28;20109;-64
2023/06/24 03:45:20;;;;;;;0.30;0.30;;;;;;;19.51;73.64;99777.72;5093228;28;20036;-64
2023/06/24 03:47:49;;;;;;;0.63;0.63;;;;;;;19.55;73.60;99773.28;5093160;28;20063;-65
2023/06/24 03:50:19;;;;;;;0.63;0.63;;;;;;;19.61;73.56;99773.91;5093061;28;20510;-64
2023/06/24 03:52:50;;;;;;;0.40;0.40;;;;;;;19.68;73.24;99770.19;5093055;28;20052;-65
2023/06/24 03:55:20;;;;;;;0.65;0.65;;;;;;;19.72;73.05;99770.94;5093339;28;20050;-64
2023/06/24 03:57:49;;;;;;;0.43;0.43;;;;;;;19.75;72.67;99776.84;5094140;28;20482;-64
2023/06/24 04:00:23;;;;;;;0.40;0.40;;;;;;;19.77;72.63;99775.03;5094198;28;20490;-64
2023/06/24 04:02:53;;;;;;;0.52;0.52;;;;;;;19.81;72.13;99780.97;5093603;28;20063;-65
2023/06/24 04:05:22;;;;;;;0.47;0.47;;;;;;;19.86;72.06;99779.91;5093777;28;20044;-64
2023/06/24 04:07:53;;;;;;;0.40;0.40;;;;;;;19.88;71.87;99779.84;5093994;28;20036;-64
2023/06/24 04:10:22;;;;;;;0.50;0.50;;;;;;;19.91;71.80;99783.19;5093979;28;20036;-64
2023/06/24 04:12:51;;;;;;;0.50;0.50;;;;;;;19.90;72.08;99783.22;5094196;28;20130;-64
2023/06/24 04:15:20;;;;;;;0.35;0.35;;;;;;;19.90;72.37;99781.47;5092999;28;20490;-64
2023/06/24 04:17:48;;;;;;;0.53;0.40;;;;;;;19.93;72.83;99781.38;5093793;28;20114;-64
2023/06/24 04:20:17;;;;;;;0.30;0.30;;;;;;;19.96;72.97;99773.47;5076093;28;20847;-64
2023/06/24 04:22:46;;;;;;;0.40;0.40;;;;;;;19.98;73.49;99778.59;5092639;28;20132;-64
2023/06/24 04:25:19;;;;;;;0.40;0.40;;;;;;;20.00;73.49;99777.66;5094062;28;20448;-64
2023/06/24 04:27:47;;;;;;;0.40;0.40;;;;;;;20.03;73.64;99780.09;5094044;28;20127;-64
2023/06/24 04:30:16;;;;;;;0.80;0.80;;;;;;;20.06;73.64;99782.59;5092846;28;20044;-64
2023/06/24 04:32:45;;;;;;;1.93;0.73;;;;;;;20.08;73.02;99779.09;5092473;28;20283;-64
2023/06/24 04:35:14;;;;;;;;;;;;;;;20.09;73.00;99786.81;5094124;28;20821;-64
2023/06/24 04:37:43;;;;;;;0.70;0.70;;;;;;;20.17;72.43;99784.78;5094169;28;20354;-64
2023/06/24 04:40:13;;;;;;;0.73;0.73;;;;;;;20.21;72.52;99791.53;5093468;28;20414;-64
2023/06/24 04:42:44;;;;;;;0.40;0.40;;;;;;;20.22;72.41;99794.97;5094456;28;20051;-64
2023/06/24 04:45:13;;;;;;;0.40;0.40;;;;;;;20.26;72.14;99794.81;5093853;28;20044;-64
2023/06/24 04:47:43;;;;;;;0.50;0.50;;;;;;;20.34;72.70;99799.72;5093582;28;20040;-64
2023/06/24 04:50:12;;;;;;;0.50;0.50;;;;;;;20.36;72.68;99806.53;5093582;28;20044;-64
2023/06/24 04:52:41;;;;;;;0.45;0.45;;;;;;;20.40;72.57;99802.06;5093827;28;20044;-64
2023/06/24 04:55:10;;;;;;;1.23;0.95;;;;;;;20.42;72.74;99795.91;5093520;28;20078;-64
2023/06/24 04:57:39;;;;;;;0.60;0.60;;;;;;;20.47;72.55;99800.91;5093512;28;20097;-64
2023/06/24 05:00:10;;;;;;;0.40;0.40;;;;;;;20.52;72.21;99806.78;5093393;28;20510;-64
2023/06/24 05:02:39;;;;;;;0.50;0.50;;;;;;;20.63;71.65;99800.28;5093471;28;20078;-64
2023/06/24 05:05:08;;;;;;;0.60;0.60;;;;;;;20.76;71.61;99805.81;5093436;28;20052;-65
2023/06/24 05:07:39;;;;;;;0.50;0.50;;;;;;;20.87;71.41;99808.84;5093424;28;20052;-64
2023/06/24 05:10:08;;;;;;;0.40;0.40;;;;;;;20.93;71.12;99803.38;5093498;28;20052;-64
2023/06/24 05:12:37;;;;;;;0.68;0.68;;;;;;;20.96;70.97;99808.44;5093625;28;20044;-64
2023/06/24 05:15:07;;;;;;;0.43;0.43;;;;;;;20.96;70.63;99798.06;5093262;28;20066;-64
2023/06/24 05:17:37;;;;;;;0.40;0.40;;;;;;;21.04;70.42;99795.97;5096272;28;20268;-64
2023/06/24 05:20:07;;;;;;;0.40;0.40;;;;;;;20.99;69.35;99781.53;5097239;28;20052;-64
2023/06/24 05:22:36;;;;;;;0.30;0.30;;;;;;;21.00;69.10;99776.25;5097218;28;20047;-65
2023/06/24 05:25:06;;;;;;;0.40;0.40;;;;;;;21.12;68.97;99790.50;5097066;28;20040;-64
2023/06/24 05:27:35;;;;;;;0.38;0.38;;;;;;;21.22;69.01;99805.66;5097318;28;20122;-64
2023/06/24 05:30:04;;;;;;;0.57;0.57;;;;;;;21.38;68.71;99806.69;5097167;28;20040;-64
2023/06/24 05:32:33;;;;;;;0.50;0.50;;;;;;;21.46;68.15;99815.91;5096856;28;20055;-65
2023/06/24 05:35:04;;;;;;;0.43;0.43;;;;;;;21.48;67.77;99816.66;5097213;28;20089;-65
2023/06/24 05:37:34;;;;;;;0.32;0.32;;;;;;;21.42;67.45;99817.78;5095942;28;20044;-64
2023/06/24 05:40:05;;;;;;;0.30;0.30;;;;;;;21.41;67.58;99817.84;5096621;28;20059;-64
2023/06/24 05:42:33;;;;;;;0.50;0.50;;;;;;;21.66;67.45;99816.72;5096787;28;20153;-64
2023/06/24 05:45:02;;;;;;;0.95;0.82;;;;;;;21.97;66.98;99826.66;5096740;28;20040;-64
2023/06/24 05:47:32;;;;;;;0.80;0.73;;;;;;;22.12;66.25;99810.38;5096768;28;20071;-64
2023/06/24 05:50:01;;;;;;;;;;;;;;;22.39;65.56;99826.44;5096755;28;20494;-65
2023/06/24 05:52:31;;;;;;;0.45;0.45;;;;;;;22.59;64.92;99822.00;5096397;28;19924;-65
2023/06/24 05:55:00;;;;;;;0.77;0.77;;;;;;;22.78;64.61;99823.72;5096815;28;20055;-65
2023/06/24 05:57:29;;;;;;;0.40;0.40;;;;;;;22.92;63.70;99818.69;5096506;28;20043;-65
2023/06/24 05:59:58;;;;;;;0.60;0.60;;;;;;;23.05;63.37;99830.22;5096760;28;20381;-65
2023/06/24 06:02:27;;;;;;;0.30;0.30;;;;;;;23.26;62.90;99834.34;5096861;28;20777;-65
2023/06/24 06:04:56;;;;;;;0.60;0.60;;;;;;;23.24;62.96;99836.19;5096603;28;20439;-66
2023/06/24 06:07:24;;;;;;;0.40;0.40;;;;;;;23.25;62.75;99833.50;5096249;28;20066;-65
2023/06/24 06:09:55;;;;;;;0.57;0.57;;;;;;;23.10;61.84;99834.28;5096928;28;20767;-65
2023/06/24 06:12:24;;;;;;;0.45;0.45;;;;;;;23.00;61.76;99837.41;5096120;28;20048;-65
2023/06/24 06:14:53;;;;;;;11.00;0.75;;;;;;;22.94;61.44;99833.31;5094769;28;20044;-65
2023/06/24 06:17:22;;;;;;;0.50;0.50;;;;;;;22.95;61.26;99839.38;5096344;28;20555;-65
2023/06/24 06:19:51;;;;;;;0.45;0.45;;;;;;;22.81;61.31;99836.59;5096029;28;20044;-65
2023/06/24 06:22:20;;;;;;;0.43;0.43;;;;;;;22.75;61.41;99831.72;5096379;28;20442;-65
2023/06/24 06:24:49;;;;;;;0.70;0.70;;;;;;;22.90;61.63;99838.75;5095836;28;20040;-65
2023/06/24 06:27:20;;;;;;;0.50;0.50;;;;;;;22.96;62.11;99831.50;5095891;28;20052;-65
2023/06/24 06:29:49;;;;;;;0.40;0.40;;;;;;;22.87;62.24;99837.16;5095924;28;20051;-65
2023/06/24 06:32:18;;;;;;;0.40;0.40;;;;;;;22.81;62.87;99836.59;5095775;28;20036;-65
2023/06/24 06:34:47;;;;;;;0.40;0.40;;;;;;;22.89;63.67;99845.72;5095998;28;20482;-65
2023/06/24 06:37:16;;;;;;;0.50;0.50;;;;;;;22.91;63.80;99845.66;5095869;28;20105;-65
2023/06/24 06:39:45;;;;;;;1.38;0.35;;;;;;;22.87;64.31;99851.91;5096061;28;20044;-65
2023/06/24 06:42:14;;;;;;;0.57;0.57;;;;;;;22.73;64.38;99854.34;5095554;28;20051;-65
2023/06/24 06:44:45;;;;;;;0.75;0.75;;;;;;;22.80;65.05;99843.56;5095699;28;20056;-65
2023/06/24 06:47:14;;;;;;;0.50;0.50;;;;;;;22.89;64.89;99842.31;5095528;28;20078;-65
2023/06/24 06:49:43;;;;;;;0.40;0.40;;;;;;;23.03;64.84;99852.88;5095545;28;20046;-65
2023/06/24 06:52:11;;;;;;;0.43;0.40;;;;;;;23.07;64.58;99857.03;5095269;28;20051;-65
2023/06/24 06:54:42;;;;;;;0.90;0.77;;;;;;;23.12;64.97;99849.81;5095572;28;20486;-65
2023/06/24 06:57:11;;;;;;;0.40;0.40;;;;;;;23.23;64.66;99858.78;5094305;28;20044;-66
2023/06/24 06:59:40;;;;;;;0.35;0.35;;;;;;;23.49;65.17;99856.69;5095544;28;20047;-65
2023/06/24 07:02:10;;;;;;;0.65;0.55;;;;;;;23.60;64.37;99852.63;5095120;28;20097;-65
2023/06/24 07:04:39;;;;;;;0.40;0.40;;;;;;;23.60;63.88;99855.22;5095387;28;20052;-66
2023/06/24 07:07:08;;;;;;;0.85;0.50;;;;;;;23.34;63.05;99858.28;5095343;28;20028;-66
2023/06/24 07:09:37;;;;;;;0.40;0.40;;;;;;;23.26;63.16;99856.03;5094054;28;20134;-65
2023/06/24 07:12:08;;;;;;;0.55;0.50;;;;;;;23.40;63.11;99852.78;5094808;28;20044;-65
2023/06/24 07:14:36;;;;;;;0.50;0.50;;;;;;;23.49;63.52;99852.28;5094946;28;20040;-65
2023/06/24 07:17:06;;;;;;;0.40;0.40;;;;;;;23.72;63.42;99858.97;5094903;28;20051;-66
2023/06/24 07:19:36;;;;;;;0.45;0.45;;;;;;;23.98;62.91;99864.50;5095114;28;20268;-65
2023/06/24 07:22:06;;;;;;;0.50;0.50;;;;;;;24.31;61.37;99861.03;5094792;28;20051;-65
2023/06/24 07:24:34;;;;;;;0.50;0.50;;;;;;;24.34;60.58;99864.34;5094876;28;20036;-65
2023/06/24 07:27:03;;;;;;;0.60;0.60;;;;;;;24.60;60.23;99860.31;5094891;28;20486;-65
2023/06/24 07:29:32;;;;;;;0.47;0.47;;;;;;;24.91;59.52;99854.22;5094614;28;20040;-65
2023/06/24 07:32:01;;;;;;;0.30;0.30;;;;;;;24.97;58.57;99849.53;5094714;28;20036;-64
2023/06/24 07:34:30;;;;;;;0.52;0.50;;;;;;;25.07;58.14;99852.44;5094659;28;20051;-64
2023/06/24 07:37:00;;;;;;;;;;;;;;;25.32;57.71;99855.31;5093865;28;20043;-64
2023/06/24 07:39:49;;;;;;;0.32;0.32;;;;;;;25.44;56.98;99857.25;5093735;28;19924;-64
2023/06/24 07:42:19;;;;;;;0.52;0.52;;;;;;;25.55;56.63;99847.03;5094701;28;20047;-63
2023/06/24 07:44:48;;;;;;;0.40;0.40;;;;;;;25.42;56.10;99855.63;5094910;28;20074;-65
2023/06/24 07:47:18;;;;;;;0.40;0.40;;;;;;;25.37;55.89;99855.03;5094341;28;20052;-64
2023/06/24 07:49:47;;;;;;;0.30;0.30;;;;;;;25.30;55.59;99867.63;5094353;28;20032;-65
2023/06/24 07:52:17;;;;;;;0.50;0.50;;;;;;;25.34;55.48;99863.91;5094467;28;20040;-63
2023/06/24 07:54:46;;;;;;;0.75;0.70;;;;;;;25.20;55.43;99871.72;5094241;28;20123;-65
2023/06/24 07:57:14;;;;;;;0.57;0.57;;;;;;;25.28;55.43;99859.91;5094200;28;20050;-65
2023/06/24 07:59:44;;;;;;;0.50;0.50;;;;;;;25.51;55.43;99861.19;5094157;28;20101;-65
2023/06/24 08:02:14;;;;;;;1.10;1.00;;;;;;;25.54;55.10;99857.56;5094098;28;20048;-64
2023/06/24 08:04:42;;;;;;;0.60;0.60;;;;;;;25.44;55.03;99864.22;5094376;28;20397;-65
2023/06/24 08:07:12;;;;;;;3.90;1.10;;;;;;;25.43;55.62;99867.78;5093382;28;20055;-65
2023/06/24 08:09:42;;;;;;;1.23;1.02;;;;;;;25.54;55.06;99860.16;5094020;28;20040;-65
2023/06/24 08:12:11;;;;;;;0.60;0.57;;;;;;;25.66;55.19;99864.66;5094416;28;20036;-65
2023/06/24 08:14:40;;;;;;;0.40;0.40;;;;;;;25.57;55.24;99870.44;5095073;28;20462;-65
2023/06/24 08:17:09;;;;;;;0.50;0.50;;;;;;;25.69;55.22;99874.94;5093811;28;20516;-64
2023/06/24 08:19:38;;;;;;;1.10;0.90;;;;;;;25.81;55.12;99874.22;5094089;28;20032;-65
2023/06/24 08:22:07;;;;;;;0.80;0.70;;;;;;;25.74;54.75;99878.13;5093805;28;20045;-64
2023/06/24 08:24:36;;;;;;;0.52;0.52;;;;;;;25.74;54.70;99885.97;5094007;28;20040;-65
2023/06/24 08:27:08;;;;;;;0.30;0.30;;;;;;;25.88;54.51;99891.22;5094033;28;20055;-65
2023/06/24 08:29:38;;;;;;;0.65;0.65;;;;;;;25.91;54.71;99876.16;5094051;28;20134;-65
2023/06/24 08:32:07;;;;;;;0.68;0.68;;;;;;;25.83;55.24;99865.34;5093781;28;20035;-65
2023/06/24 08:34:36;;;;;;;0.40;0.40;;;;;;;25.97;55.11;99872.34;5093465;28;20135;-64
2023/06/24 08:37:05;;;;;;;0.75;0.73;;;;;;;25.77;55.29;99867.50;5092693;28;20395;-65
2023/06/24 08:39:34;;;;;;;0.80;0.80;;;;;;;25.82;55.44;99870.66;5092353;28;20119;-65
2023/06/24 08:42:04;;;;;;;0.50;0.50;;;;;;;26.03;55.50;99873.75;5092443;28;20056;-65
2023/06/24 08:44:35;;;;;;;0.40;0.40;;;;;;;25.94;55.38;99878.59;5093860;28;20098;-65
2023/06/24 08:47:04;;;;;;;0.73;0.73;;;;;;;25.73;55.55;99868.59;5093607;28;20078;-64
2023/06/24 08:49:35;;;;;;;0.35;0.35;;;;;;;25.74;55.78;99870.28;5093699;28;20040;-64
2023/06/24 08:52:09;;;;;;;0.50;0.50;;;;;;;25.97;55.17;99874.97;5095293;28;20071;-65
2023/06/24 08:54:41;;;;;;;0.85;0.77;;;;;;;26.06;54.89;99869.16;5097736;28;20044;-64
2023/06/24 08:57:14;;;;;;;0.60;0.60;;;;;;;26.09;54.90;99866.38;5097587;28;20505;-64
2023/06/24 08:59:45;;;;;;;0.65;0.65;;;;;;;26.22;55.22;99875.19;5097617;28;20105;-64
2023/06/24 09:02:14;;;;;;;1.33;1.00;;;;;;;26.22;54.62;99875.19;5097443;28;20052;-64
2023/06/24 09:04:43;;;;;;;0.70;0.70;;;;;;;26.48;55.68;99869.19;5097694;28;20048;-64
2023/06/24 09:07:13;;;;;;;1.27;0.60;;;;;;;26.59;54.63;99858.84;5097421;28;20046;-64
2023/06/24 09:09:45;;;;;;;0.50;0.50;;;;;;;26.60;54.05;99865.78;5097628;28;20052;-64
2023/06/24 09:12:16;;;;;;;0.50;0.50;;;;;;;26.58;53.79;99866.81;5097923;28;20094;-65
2023/06/24 09:14:50;;;;;;;0.85;0.63;;;;;;;26.79;53.97;99867.25;5097201;28;20040;-64
2023/06/24 09:17:22;;;;;;;0.43;0.43;;;;;;;27.01;53.71;99855.28;5097611;28;20497;-64
2023/06/24 09:19:52;;;;;;;0.45;0.45;;;;;;;27.17;53.22;99861.19;5097529;28;20048;-64
2023/06/24 09:22:22;;;;;;;3.17;1.35;;;;;;;27.23;52.28;99862.59;5097245;28;20166;-65
2023/06/24 09:24:50;;;;;;;0.40;0.40;;;;;;;27.10;52.94;99853.84;5097372;28;20125;-66
2023/06/24 09:27:21;;;;;;;0.63;0.52;;;;;;;26.97;53.32;99852.97;5097233;28;20032;-64
2023/06/24 09:29:52;;;;;;;0.47;0.47;;;;;;;27.14;52.83;99855.31;5097074;28;20090;-64
2023/06/24 09:32:22;;;;;;;1.13;1.02;;;;;;;26.85;53.16;99866.88;5097198;28;20040;-65
2023/06/24 09:34:51;;;;;;;0.63;0.60;;;;;;;26.63;53.20;99854.28;5097118;28;20571;-65
2023/06/24 09:37:24;;;;;;;1.05;0.95;;;;;;;26.83;53.58;99856.47;5096857;28;20040;-65
2023/06/24 09:39:53;;;;;;;0.38;0.38;;;;;;;26.87;53.48;99855.34;5096710;28;20101;-65
2023/06/24 09:42:23;;;;;;;0.88;0.80;;;;;;;26.62;54.04;99857.81;5097070;28;20060;-65
2023/06/24 09:44:57;;;;;;;0.80;0.70;;;;;;;26.46;54.63;99865.81;5097026;28;20047;-65
2023/06/24 09:47:27;;;;;;;1.17;0.82;;;;;;;26.28;54.56;99864.34;5097310;28;20050;-65
2023/06/24 09:49:56;;;;;;;0.70;0.70;;;;;;;26.18;54.69;99873.69;5096888;28;20417;-64
2023/06/24 09:52:26;;;;;;;;;;;;;;;25.96;55.22;99875.91;5096925;28;20138;-65
2023/06/24 09:54:56;;;;;;;0.52;0.52;;;;;;;25.86;56.06;99874.78;5096435;28;19924;-65
2023/06/24 09:57:30;;;;;;;1.55;0.80;;;;;;;25.71;56.51;99868.69;5096972;28;20046;-65
2023/06/24 10:00:01;;;;;;;0.80;0.80;;;;;;;25.67;56.26;99871.59;5096458;28;20123;-65
2023/06/24 10:02:34;;;;;;;0.82;0.60;;;;;;;25.57;56.56;99873.06;5096375;28;20055;-65
2023/06/24 10:05:04;;;;;;;1.08;0.98;;;;;;;25.51;57.08;99878.63;5097106;28;20067;-65
2023/06/24 10:07:36;;;;;;;1.80;1.08;;;;;;;25.47;57.57;99883.22;5096277;28;20125;-64
2023/06/24 10:10:07;;;;;;;1.52;1.30;;;;;;;25.49;57.57;99883.13;5096139;28;20075;-64
2023/06/24 10:12:36;;;;;;;0.57;0.55;;;;;;;25.48;58.14;99878.84;5096241;28;20374;-65
2023/06/24 10:15:08;;;;;;;1.08;0.60;;;;;;;25.44;57.93;99877.28;5096020;28;20037;-65
2023/06/24 10:17:38;;;;;;;0.75;0.68;;;;;;;25.33;57.76;99879.69;5096200;28;20076;-65
2023/06/24 10:20:08;;;;;;;2.15;0.70;;;;;;;25.24;58.04;99879.28;5096312;28;20097;-65
2023/06/24 10:22:37;;;;;;;1.02;0.93;;;;;;;25.16;58.18;99876.28;5096317;28;20117;-65
2023/06/24 10:25:08;;;;;;;1.25;0.98;;;;;;;25.16;58.72;99883.28;5095883;28;20505;-65
2023/06/24 10:27:42;;;;;;;0.80;0.80;;;;;;;25.24;58.67;99874.06;5096455;28;20056;-64
2023/06/24 10:30:20;;;;;;;0.32;0.32;;;;;;;25.44;58.78;99870.31;5096285;28;20101;-65
2023/06/24 10:32:52;;;;;;;0.47;0.47;;;;;;;25.57;58.84;99876.53;5095823;28;20098;-65
2023/06/24 10:35:29;;;;;;;4.13;0.50;;;;;;;25.63;57.91;99870.06;5095074;28;20044;-65
2023/06/24 10:38:00;;;;;;;0.68;0.68;;;;;;;25.79;57.76;99863.88;5095855;28;20071;-65
2023/06/24 10:40:37;;;;;;;0.65;0.65;;;;;;;26.09;58.08;99862.91;5095374;28;20048;-65
2023/06/24 10:43:29;;;;;;;0.52;0.52;;;;;;;26.14;57.38;99860.88;5095620;28;20059;-65
2023/06/24 10:46:00;;;;;;;0.60;0.60;;;;;;;26.23;57.30;99870.78;5095577;28;20044;-64
2023/06/24 10:48:29;;;;;;;5.32;1.10;;;;;;;26.17;56.58;99866.78;5095472;28;20044;-64
2023/06/24 10:50:58;;;;;;;0.60;0.60;;;;;;;25.86;56.17;99872.16;5095408;28;20478;-63
2023/06/24 10:53:30;;;;;;;0.80;0.65;;;;;;;25.55;56.94;99869.69;5095596;28;20036;-63
2023/06/24 10:55:59;;;;;;;0.50;0.50;;;;;;;25.49;57.14;99877.88;5095607;28;20539;-63
2023/06/24 10:58:28;;;;;;;;;;;;;;;25.36;57.62;99871.69;5095761;28;20550;-63
2023/06/24 11:01:10;;;;;;;0.67;0.67;;;;;;;25.30;57.50;99881.56;5095507;28;19967;-64
2023/06/24 11:03:42;;;;;;;0.80;0.80;;;;;;;25.38;57.69;99875.03;5095214;28;20067;-64
2023/06/24 11:06:12;;;;;;;0.70;0.70;;;;;;;25.25;58.02;99874.91;5095815;28;20055;-64
2023/06/24 11:08:44;;;;;;;;;;;;;;;25.29;58.20;99872.03;5095791;28;20075;-64
2023/06/24 11:11:21;;;;;;;0.50;0.50;;;;;;;25.25;58.19;99867.91;5095007;28;19920;-63
2023/06/24 11:13:50;;;;;;;0.60;0.60;;;;;;;25.27;58.36;99868.66;5092983;28;20044;-64
2023/06/24 11:16:23;;;;;;;0.63;0.63;;;;;;;25.22;58.64;99865.47;5095106;28;20070;-64
2023/06/24 11:18:52;;;;;;;0.60;0.60;;;;;;;25.15;58.87;99865.91;5094920;28;20048;-64
2023/06/24 11:21:21;;;;;;;1.13;1.02;;;;;;;25.12;58.93;99853.84;5094721;28;20058;-64
2023/06/24 11:23:50;;;;;;;1.23;1.13;;;;;;;25.21;58.74;99863.81;5095391;28;20043;-64
2023/06/24 11:26:19;;;;;;;;;;;;;;;25.33;58.94;99861.41;5095391;28;20046;-64
2023/06/24 11:28:50;;;;;;;1.23;1.13;;;;;;;25.35;58.76;99862.13;5094673;28;20366;-65
2023/06/24 11:31:19;;;;;;;0.60;0.60;;;;;;;25.53;58.91;99863.72;5094658;28;20580;-64
2023/06/24 11:33:51;;;;;;;0.70;0.70;;;;;;;25.52;58.35;99856.81;5094806;28;20071;-64
2023/06/24 11:36:20;;;;;;;0.50;0.50;;;;;;;25.59;58.29;99868.59;5095031;28;20040;-64
2023/06/24 11:38:50;;;;;;;0.60;0.60;;;;;;;25.31;57.84;99859.69;5095027;28;20048;-63
2023/06/24 11:41:23;;;;;;;0.77;0.70;;;;;;;25.25;57.66;99854.84;5094533;28;20050;-63
2023/06/24 11:43:52;;;;;;;1.63;1.20;;;;;;;25.45;57.78;99861.56;5094593;28;20047;-63
2023/06/24 11:46:25;;;;;;;0.93;0.60;;;;;;;25.72;57.55;99861.69;5094352;28;20048;-64
2023/06/24 11:49:05;;;;;;;1.50;1.15;;;;;;;25.92;57.23;99861.31;5094941;28;20400;-64
2023/06/24 11:51:34;;;;;;;1.20;0.88;;;;;;;25.89;57.10;99861.53;5094575;28;20446;-63
2023/06/24 11:54:06;;;;;;;0.85;0.80;;;;;;;26.00;56.66;99851.25;5094273;28;20048;-63